createdAt,value
2023-04-12T00:01:02.471Z,5.20
2023-04-12T00:03:30.651Z,5.20
2023-04-12T00:05:57.455Z,5.20
2023-04-12T00:08:33.471Z,5.30
2023-04-12T00:11:01.319Z,5.30
2023-04-12T00:13:28.438Z,5.30
2023-04-12T00:15:55.723Z,5.30
2023-04-12T00:18:26.091Z,5.40
2023-04-12T00:20:53.348Z,5.40
2023-04-12T00:23:20.505Z,5.40
2023-04-12T00:25:47.517Z,5.50
2023-04-12T00:28:15.779Z,5.50
2023-04-12T00:30:42.614Z,5.50
2023-04-12T00:33:09.301Z,5.50
2023-04-12T00:35:36.048Z,5.50
2023-04-12T00:38:03.802Z,5.50
2023-04-12T00:40:30.776Z,5.50
2023-04-12T00:42:57.748Z,5.60
2023-04-12T00:45:24.513Z,5.60
2023-04-12T00:47:51.564Z,5.60
2023-04-12T00:50:18.510Z,5.60
2023-04-12T00:52:45.432Z,5.60
2023-04-12T00:55:12.204Z,5.60
2023-04-12T00:57:40.137Z,5.70
2023-04-12T01:00:13.967Z,5.70
2023-04-12T01:02:47.111Z,5.70
2023-04-12T01:05:22.379Z,5.70
2023-04-12T01:08:14.899Z,5.80
2023-04-12T01:10:57.813Z,5.80
2023-04-12T01:13:38.825Z,5.80
2023-04-12T01:16:24.720Z,5.80
2023-04-12T01:18:54.108Z,5.80
2023-04-12T01:21:45.174Z,5.80
2023-04-12T01:24:29.583Z,5.90
2023-04-12T01:27:02.071Z,5.90
2023-04-12T01:29:30.832Z,5.90
2023-04-12T01:32:05.267Z,6.00
2023-04-12T01:34:34.991Z,5.90
2023-04-12T01:37:03.036Z,6.00
2023-04-12T01:39:30.965Z,6.00
2023-04-12T01:41:57.663Z,6.00
2023-04-12T01:44:24.991Z,6.00
2023-04-12T01:46:53.013Z,6.00
2023-04-12T01:49:21.638Z,6.00
2023-04-12T01:52:01.744Z,6.10
2023-04-12T01:54:31.186Z,6.10
2023-04-12T01:57:01.792Z,6.10
2023-04-12T01:59:43.421Z,6.10
2023-04-12T02:02:12.058Z,6.10
2023-04-12T02:04:39.446Z,6.10
2023-04-12T02:07:06.526Z,6.10
2023-04-12T02:09:38.364Z,6.10
2023-04-12T02:12:06.611Z,6.10
2023-04-12T02:14:33.552Z,6.10
2023-04-12T02:17:02.329Z,6.10
2023-04-12T02:19:29.327Z,6.10
2023-04-12T02:21:56.172Z,6.10
2023-04-12T02:24:23.967Z,6.10
2023-04-12T02:26:50.702Z,6.20
2023-04-12T02:29:17.976Z,6.20
2023-04-12T02:31:44.657Z,6.20
2023-04-12T02:34:13.240Z,6.20
2023-04-12T02:36:40.042Z,6.20
2023-04-12T02:39:07.838Z,6.20
2023-04-12T02:41:34.798Z,6.20
2023-04-12T02:44:01.880Z,6.20
2023-04-12T02:46:28.743Z,6.20
2023-04-12T02:48:55.605Z,6.20
2023-04-12T02:51:22.550Z,6.20
2023-04-12T02:53:49.300Z,6.20
2023-04-12T02:56:19.056Z,6.20
2023-04-12T02:58:46.248Z,6.20
2023-04-12T03:01:13.298Z,6.20
2023-04-12T03:03:40.597Z,6.20
2023-04-12T03:06:09.273Z,6.20
2023-04-12T03:08:36.192Z,6.10
2023-04-12T03:11:02.937Z,6.20
2023-04-12T03:13:29.647Z,6.20
2023-04-12T03:15:58.333Z,6.10
2023-04-12T03:18:25.302Z,6.10
2023-04-12T03:20:54.750Z,6.10
2023-04-12T03:23:21.944Z,6.10
2023-04-12T03:25:48.714Z,6.10
2023-04-12T03:28:15.447Z,6.10
2023-04-12T03:30:42.192Z,6.10
2023-04-12T03:33:09.084Z,6.00
2023-04-12T03:35:36.252Z,6.00
2023-04-12T03:38:03.226Z,6.00
2023-04-12T03:40:29.963Z,6.00
2023-04-12T03:42:56.702Z,6.00
2023-04-12T03:45:24.175Z,6.00
2023-04-12T03:47:51.015Z,6.00
2023-04-12T03:50:17.796Z,6.00
2023-04-12T03:52:44.539Z,6.00
2023-04-12T03:55:13.545Z,5.90
2023-04-12T03:57:40.307Z,5.90
2023-04-12T04:00:08.866Z,5.90
2023-04-12T04:02:36.153Z,5.90
2023-04-12T04:05:03.970Z,5.90
2023-04-12T04:07:31.931Z,5.80
2023-04-12T04:09:58.966Z,5.80
2023-04-12T04:12:25.817Z,5.80
2023-04-12T04:14:52.493Z,5.80
2023-04-12T04:17:19.272Z,5.80
2023-04-12T04:19:46.039Z,5.80
2023-04-12T04:22:13.790Z,5.80
2023-04-12T04:24:40.491Z,5.70
2023-04-12T04:27:07.213Z,5.70
2023-04-12T04:29:34.065Z,5.70
2023-04-12T04:32:01.509Z,5.70
2023-04-12T04:34:28.575Z,5.70
2023-04-12T04:36:55.392Z,5.70
2023-04-12T04:39:22.880Z,5.70
2023-04-12T04:41:54.507Z,5.70
2023-04-12T04:44:21.800Z,5.70
2023-04-12T04:46:49.158Z,5.70
2023-04-12T04:49:16.353Z,5.70
2023-04-12T04:51:43.094Z,5.70
2023-04-12T04:54:09.884Z,5.70
2023-04-12T04:56:36.653Z,5.70
2023-04-12T04:59:03.368Z,5.70
2023-04-12T05:01:30.224Z,5.70
2023-04-12T05:03:57.148Z,5.70
2023-04-12T05:06:24.008Z,5.70
2023-04-12T05:08:52.312Z,5.70
2023-04-12T05:11:19.930Z,5.70
2023-04-12T05:13:46.703Z,5.70
2023-04-12T05:16:13.648Z,5.70
2023-04-12T05:18:40.396Z,5.70
2023-04-12T05:21:07.326Z,5.80
2023-04-12T05:23:41.766Z,5.80
2023-04-12T05:26:08.641Z,5.90
2023-04-12T05:28:35.373Z,5.90
2023-04-12T05:31:02.254Z,5.90
2023-04-12T05:33:29.892Z,5.90
2023-04-12T05:35:57.842Z,6.00
2023-04-12T05:38:24.610Z,6.00
2023-04-12T05:40:51.505Z,6.00
2023-04-12T05:43:18.336Z,6.00
2023-04-12T05:45:45.230Z,6.00
2023-04-12T05:48:12.026Z,6.10
2023-04-12T05:50:38.767Z,6.10
2023-04-12T05:53:06.029Z,6.10
2023-04-12T05:55:32.903Z,6.10
2023-04-12T05:57:59.637Z,6.10
2023-04-12T06:00:26.505Z,6.20
2023-04-12T06:02:53.537Z,6.20
2023-04-12T06:05:20.576Z,6.30
2023-04-12T06:07:48.414Z,6.30
2023-04-12T06:10:17.111Z,6.30
2023-04-12T06:12:44.360Z,6.30
2023-04-12T06:15:11.575Z,6.40
2023-04-12T06:17:38.604Z,6.40
2023-04-12T06:20:09.181Z,6.50
2023-04-12T06:22:36.902Z,6.50
2023-04-12T06:25:04.005Z,6.50
2023-04-12T06:27:31.238Z,6.60
2023-04-12T06:29:58.112Z,6.60
2023-04-12T06:32:25.245Z,6.60
2023-04-12T06:34:52.096Z,6.60
2023-04-12T06:37:18.967Z,6.70
2023-04-12T06:39:45.690Z,6.60
2023-04-12T06:42:14.528Z,6.70
2023-04-12T06:44:41.699Z,6.70
2023-04-12T06:47:09.384Z,6.80
2023-04-12T06:49:36.467Z,6.90
2023-04-12T06:52:03.268Z,6.90
2023-04-12T06:54:30.184Z,7.00
2023-04-12T06:56:57.661Z,7.10
2023-04-12T06:59:24.517Z,7.10
2023-04-12T07:01:51.787Z,7.20
2023-04-12T07:04:18.624Z,7.20
2023-04-12T07:06:45.421Z,7.30
2023-04-12T07:09:12.224Z,7.40
2023-04-12T07:11:39.028Z,7.50
2023-04-12T07:14:06.125Z,7.60
2023-04-12T07:16:32.983Z,7.60
2023-04-12T07:19:00.796Z,7.70
2023-04-12T07:21:28.131Z,7.80
2023-04-12T07:23:55.862Z,7.80
2023-04-12T07:26:23.141Z,7.90
2023-04-12T07:28:49.984Z,8.00
2023-04-12T07:31:16.875Z,8.10
2023-04-12T07:33:44.126Z,8.10
2023-04-12T07:36:11.980Z,8.10
2023-04-12T07:38:38.861Z,8.10
2023-04-12T07:41:06.058Z,8.20
2023-04-12T07:43:32.834Z,8.30
2023-04-12T07:45:59.896Z,8.50
2023-04-12T07:48:26.673Z,8.60
2023-04-12T07:50:53.471Z,8.90
2023-04-12T07:53:26.536Z,9.10
2023-04-12T07:55:54.351Z,9.40
2023-04-12T07:58:24.853Z,9.60
2023-04-12T08:00:51.986Z,9.80
2023-04-12T08:03:19.182Z,9.90
2023-04-12T08:05:49.484Z,10.00
2023-04-12T08:08:16.225Z,10.10
2023-04-12T08:10:43.032Z,10.20
2023-04-12T08:13:09.771Z,10.20
2023-04-12T08:15:36.784Z,10.10
2023-04-12T08:18:04.096Z,10.20
2023-04-12T08:20:31.761Z,10.10
2023-04-12T08:22:59.032Z,10.10
2023-04-12T08:25:25.865Z,10.10
2023-04-12T08:27:52.586Z,10.10
2023-04-12T08:30:19.965Z,10.30
2023-04-12T08:32:46.794Z,10.30
2023-04-12T08:35:15.152Z,10.40
2023-04-12T08:37:42.238Z,10.40
2023-04-12T08:40:09.532Z,10.40
2023-04-12T08:42:40.109Z,10.20
2023-04-12T08:45:08.727Z,10.20
2023-04-12T08:47:41.298Z,10.20
2023-04-12T08:50:09.985Z,10.30
2023-04-12T08:52:37.970Z,10.30
2023-04-12T08:55:06.331Z,10.40
2023-04-12T08:57:34.645Z,10.50
2023-04-12T09:00:03.368Z,10.40
2023-04-12T09:02:31.294Z,10.30
2023-04-12T09:04:58.627Z,10.20
2023-04-12T09:07:28.755Z,10.10
2023-04-12T09:09:57.470Z,10.10
2023-04-12T09:12:24.529Z,10.20
2023-04-12T09:15:09.467Z,10.10
2023-04-12T09:17:38.641Z,10.30
2023-04-12T09:20:17.723Z,10.50
2023-04-12T09:22:46.520Z,10.80
2023-04-12T09:25:14.934Z,11.20
2023-04-12T09:27:49.974Z,11.60
2023-04-12T09:30:18.798Z,11.90
2023-04-12T09:32:46.259Z,12.30
2023-04-12T09:35:13.000Z,12.60
2023-04-12T09:37:40.243Z,13.10
2023-04-12T09:40:09.324Z,13.50
2023-04-12T09:42:55.991Z,14.00
2023-04-12T09:45:26.008Z,14.40
2023-04-12T09:47:54.077Z,14.50
2023-04-12T09:50:28.806Z,14.60
2023-04-12T09:52:57.629Z,14.70
2023-04-12T09:55:26.616Z,14.70
2023-04-12T09:57:54.887Z,14.80
2023-04-12T10:00:26.950Z,15.20
2023-04-12T10:02:56.294Z,15.50
2023-04-12T10:05:28.162Z,16.00
2023-04-12T10:07:56.887Z,16.60
2023-04-12T10:10:24.118Z,16.50
2023-04-12T10:12:51.108Z,16.80
2023-04-12T10:15:20.833Z,16.90
2023-04-12T10:17:54.045Z,16.60
2023-04-12T10:20:24.818Z,16.50
2023-04-12T10:22:54.358Z,16.40
2023-04-12T10:25:26.022Z,16.70
2023-04-12T10:27:53.363Z,17.30
2023-04-12T10:30:20.139Z,17.90
2023-04-12T10:32:47.279Z,18.50
2023-04-12T10:35:14.137Z,19.00
2023-04-12T10:38:01.175Z,19.60
2023-04-12T10:40:29.038Z,20.20
2023-04-12T10:43:27.723Z,20.80
2023-04-12T10:45:55.003Z,21.20
2023-04-12T10:48:40.516Z,21.20
2023-04-12T10:51:30.740Z,21.20
2023-04-12T10:54:18.466Z,21.30
2023-04-12T10:56:46.822Z,21.60
2023-04-12T10:59:14.543Z,21.90
2023-04-12T11:01:42.667Z,21.80
2023-04-12T11:04:18.127Z,20.90
2023-04-12T11:06:48.412Z,20.10
2023-04-12T11:09:44.396Z,19.70
2023-04-12T11:12:15.108Z,19.20
2023-04-12T11:14:50.644Z,19.10
2023-04-12T11:17:17.872Z,19.00
2023-04-12T11:19:46.831Z,18.70
2023-04-12T11:22:16.559Z,18.50
2023-04-12T11:24:48.352Z,18.10
2023-04-12T11:27:18.803Z,18.10
2023-04-12T11:29:50.873Z,18.00
2023-04-12T11:32:17.699Z,17.90
2023-04-12T11:34:47.222Z,17.80
2023-04-12T11:37:14.560Z,17.90
2023-04-12T11:39:45.361Z,18.00
2023-04-12T11:42:16.955Z,18.00
2023-04-12T11:44:57.752Z,18.00
2023-04-12T11:47:26.845Z,17.90
2023-04-12T11:49:56.725Z,17.80
2023-04-12T11:52:32.633Z,17.50
2023-04-12T11:55:06.719Z,17.40
2023-04-12T11:57:35.803Z,17.50
2023-04-12T12:00:06.037Z,17.40
2023-04-12T12:02:38.837Z,17.40
2023-04-12T12:05:13.414Z,17.20
2023-04-12T12:07:40.600Z,17.00
2023-04-12T12:10:08.072Z,17.10
2023-04-12T12:12:35.210Z,17.00
2023-04-12T12:15:02.363Z,17.00
2023-04-12T12:17:29.306Z,17.10
2023-04-12T12:19:58.137Z,17.10
2023-04-12T12:22:24.864Z,17.20
2023-04-12T12:24:55.002Z,17.10
2023-04-12T12:27:30.999Z,17.00
2023-04-12T12:30:01.622Z,16.90
2023-04-12T12:32:39.013Z,16.90
2023-04-12T12:35:10.655Z,16.90
2023-04-12T12:37:37.654Z,16.90
2023-04-12T12:40:16.683Z,16.90
2023-04-12T12:42:57.469Z,17.00
2023-04-12T12:45:26.621Z,17.20
2023-04-12T12:48:00.953Z,17.40
2023-04-12T12:50:35.442Z,17.60
2023-04-12T12:53:03.871Z,17.80
2023-04-12T12:55:31.267Z,18.00
2023-04-12T13:00:29.511Z,18.20
2023-04-12T13:02:56.668Z,18.30
2023-04-12T13:05:24.082Z,18.50
2023-04-12T13:07:50.869Z,18.60
2023-04-12T13:10:17.705Z,18.50
2023-04-12T13:12:44.511Z,18.40
2023-04-12T13:15:22.341Z,18.20
2023-04-12T13:17:54.520Z,18.10
2023-04-12T13:20:24.930Z,18.00
2023-04-12T13:22:52.149Z,17.90
2023-04-12T13:25:22.239Z,17.90
2023-04-12T13:27:49.919Z,17.80
2023-04-12T13:30:17.696Z,17.80
2023-04-12T13:32:47.332Z,17.60
2023-04-12T13:35:14.136Z,17.50
2023-04-12T13:37:41.874Z,17.30
2023-04-12T13:40:09.052Z,17.20
2023-04-12T13:42:35.890Z,17.10
2023-04-12T13:45:04.119Z,17.00
2023-04-12T13:47:31.827Z,16.90
2023-04-12T13:49:58.554Z,16.60
2023-04-12T13:52:25.395Z,16.30
2023-04-12T13:54:52.153Z,16.00
2023-04-12T13:57:18.918Z,15.80
2023-04-12T13:59:45.807Z,15.60
2023-04-12T14:02:12.593Z,15.40
2023-04-12T14:04:51.787Z,15.20
2023-04-12T14:07:18.805Z,15.10
2023-04-12T14:09:45.695Z,15.30
2023-04-12T14:12:12.399Z,15.50
2023-04-12T14:14:39.133Z,15.90
2023-04-12T14:17:05.865Z,16.20
2023-04-12T14:19:32.771Z,16.50
2023-04-12T14:21:59.543Z,16.80
2023-04-12T14:24:27.069Z,17.00
2023-04-12T14:26:54.970Z,17.30
2023-04-12T14:29:21.682Z,17.40
2023-04-12T14:31:48.454Z,17.50
2023-04-12T14:34:15.214Z,17.50
2023-04-12T14:36:42.011Z,17.50
2023-04-12T14:39:10.782Z,17.50
2023-04-12T14:41:38.681Z,17.40
2023-04-12T14:44:05.588Z,17.30
2023-04-12T14:46:32.515Z,17.30
2023-04-12T14:49:01.205Z,17.30
2023-04-12T14:51:29.429Z,17.30
2023-04-12T14:53:56.919Z,17.40
2023-04-12T14:56:28.156Z,17.40
2023-04-12T14:58:56.532Z,17.40
2023-04-12T15:01:24.943Z,17.30
2023-04-12T15:03:53.125Z,17.20
2023-04-12T15:06:22.782Z,17.00
2023-04-12T15:08:55.030Z,16.80
2023-04-12T15:11:26.809Z,16.60
2023-04-12T15:13:54.033Z,16.50
2023-04-12T15:16:20.945Z,16.40
2023-04-12T15:18:47.833Z,16.30
2023-04-12T15:21:14.594Z,16.20
2023-04-12T15:23:41.899Z,15.90
2023-04-12T15:26:12.011Z,15.70
2023-04-12T15:28:38.932Z,15.60
2023-04-12T15:31:06.983Z,15.40
2023-04-12T15:33:37.853Z,15.30
2023-04-12T15:36:05.389Z,15.20
2023-04-12T15:38:32.339Z,15.20
2023-04-12T15:41:01.340Z,15.10
2023-04-12T15:43:28.900Z,15.10
2023-04-12T15:45:56.240Z,15.20
2023-04-12T15:48:24.884Z,15.10
2023-04-12T15:50:53.586Z,15.10
2023-04-12T15:53:22.965Z,15.00
2023-04-12T15:55:54.865Z,14.90
2023-04-12T15:58:23.152Z,14.80
2023-04-12T16:00:51.782Z,14.70
2023-04-12T16:03:20.578Z,14.70
2023-04-12T16:05:47.337Z,14.70
2023-04-12T16:08:14.059Z,14.60
2023-04-12T16:10:41.421Z,14.60
2023-04-12T16:13:10.222Z,14.40
2023-04-12T16:15:37.625Z,14.40
2023-04-12T16:18:04.620Z,14.30
2023-04-12T16:20:31.686Z,14.30
2023-04-12T16:22:58.757Z,14.30
2023-04-12T16:25:30.165Z,14.20
2023-04-12T16:27:57.486Z,14.20
2023-04-12T16:30:25.512Z,14.20
2023-04-12T16:32:53.079Z,14.10
2023-04-12T16:35:19.943Z,14.10
2023-04-12T16:37:47.659Z,14.10
2023-04-12T16:40:14.617Z,14.20
2023-04-12T16:42:42.597Z,14.10
2023-04-12T16:45:11.264Z,14.10
2023-04-12T16:47:39.198Z,14.10
2023-04-12T16:50:09.377Z,14.10
2023-04-12T16:52:36.836Z,14.10
2023-04-12T16:55:04.138Z,14.10
2023-04-12T16:57:31.220Z,14.00
2023-04-12T16:59:58.280Z,14.00
2023-04-12T17:02:26.144Z,14.00
2023-04-12T17:04:53.129Z,13.90
2023-04-12T17:07:19.976Z,13.90
2023-04-12T17:09:46.778Z,13.80
2023-04-12T17:12:13.610Z,13.80
2023-04-12T17:14:40.643Z,13.70
2023-04-12T17:17:07.444Z,13.70
2023-04-12T17:19:34.189Z,13.60
2023-04-12T17:22:01.067Z,13.60
2023-04-12T17:24:29.017Z,13.50
2023-04-12T17:26:57.526Z,13.50
2023-04-12T17:29:24.655Z,13.40
2023-04-12T17:31:54.222Z,13.40
2023-04-12T17:34:22.089Z,13.30
2023-04-12T17:36:49.248Z,13.30
2023-04-12T17:39:16.310Z,13.20
2023-04-12T17:41:43.236Z,13.30
2023-04-12T17:44:10.339Z,13.20
2023-04-12T17:46:37.333Z,13.20
2023-04-12T17:49:05.821Z,13.10
2023-04-12T17:51:33.201Z,13.10
2023-04-12T17:54:00.767Z,13.00
2023-04-12T17:56:27.963Z,13.00
2023-04-12T17:58:55.286Z,13.00
2023-04-12T18:01:22.497Z,12.90
2023-04-12T18:03:49.615Z,12.90
2023-04-12T18:06:18.698Z,12.90
2023-04-12T18:08:46.907Z,12.80
2023-04-12T18:11:13.801Z,12.80
2023-04-12T18:13:41.961Z,12.80
2023-04-12T18:16:09.042Z,12.70
2023-04-12T18:18:36.104Z,12.70
2023-04-12T18:21:04.689Z,12.70
2023-04-12T18:23:31.893Z,12.60
2023-04-12T18:25:58.657Z,12.50
2023-04-12T18:28:25.457Z,12.30
2023-04-12T18:30:52.162Z,12.10
2023-04-12T18:33:18.887Z,11.90
2023-04-12T18:35:45.685Z,11.70
2023-04-12T18:38:12.394Z,11.50
2023-04-12T18:40:39.215Z,11.40
2023-04-12T18:43:06.208Z,11.20
2023-04-12T18:45:32.958Z,11.10
2023-04-12T18:48:00.419Z,11.00
2023-04-12T18:50:27.573Z,10.90
2023-04-12T18:52:54.399Z,10.90
2023-04-12T18:55:21.229Z,10.80
2023-04-12T18:57:49.334Z,10.70
2023-04-12T19:00:16.780Z,10.70
2023-04-12T19:02:43.919Z,10.60
2023-04-12T19:05:11.708Z,10.60
2023-04-12T19:07:38.451Z,10.50
2023-04-12T19:10:05.561Z,10.40
2023-04-12T19:12:33.036Z,10.30
2023-04-12T19:14:59.988Z,10.20
2023-04-12T19:17:29.532Z,10.20
2023-04-12T19:19:57.240Z,10.10
2023-04-12T19:22:27.914Z,10.10
2023-04-12T19:24:54.832Z,10.00
2023-04-12T19:27:22.936Z,10.00
2023-04-12T19:29:53.547Z,9.90
2023-04-12T19:32:20.831Z,9.90
2023-04-12T19:34:47.759Z,9.90
2023-04-12T19:37:14.503Z,9.90
2023-04-12T19:39:41.705Z,9.90
2023-04-12T19:42:08.510Z,9.80
2023-04-12T19:44:35.239Z,9.80
2023-04-12T19:47:02.174Z,9.80
2023-04-12T19:49:29.389Z,9.80
2023-04-12T19:51:56.329Z,9.80
2023-04-12T19:54:23.925Z,9.70
2023-04-12T19:56:52.489Z,9.70
2023-04-12T19:59:20.933Z,9.70
2023-04-12T20:01:48.409Z,9.70
2023-04-12T20:04:16.701Z,9.70
2023-04-12T20:06:43.891Z,9.60
2023-04-12T20:09:13.755Z,9.60
2023-04-12T20:11:41.397Z,9.60
2023-04-12T20:14:08.878Z,9.60
2023-04-12T20:16:36.742Z,9.60
2023-04-12T20:19:04.876Z,9.50
2023-04-12T20:21:34.050Z,9.60
2023-04-12T20:24:02.098Z,9.60
2023-04-12T20:26:32.629Z,9.50
2023-04-12T20:29:00.869Z,9.50
2023-04-12T20:31:28.425Z,9.50
2023-04-12T20:33:56.968Z,9.50
2023-04-12T20:36:26.146Z,9.40
2023-04-12T20:38:53.760Z,9.40
2023-04-12T20:41:21.019Z,9.40
2023-04-12T20:43:48.316Z,9.40
2023-04-12T20:46:17.404Z,9.40
2023-04-12T20:48:46.422Z,9.40
2023-04-12T20:51:14.872Z,9.40
2023-04-12T20:53:47.261Z,9.40
2023-04-12T20:56:14.348Z,9.40
2023-04-12T20:58:41.139Z,9.40
2023-04-12T21:01:14.953Z,9.40
2023-04-12T21:03:43.307Z,9.40
2023-04-12T21:06:10.807Z,9.40
2023-04-12T21:08:39.037Z,9.30
2023-04-12T21:11:06.466Z,9.30
2023-04-12T21:13:34.477Z,9.30
2023-04-12T21:16:05.409Z,9.20
2023-04-12T21:18:34.231Z,9.20
2023-04-12T21:21:01.604Z,9.10
2023-04-12T21:23:28.339Z,9.10
2023-04-12T21:25:55.062Z,9.00
2023-04-12T21:28:22.915Z,8.90
2023-04-12T21:30:54.680Z,8.90
2023-04-12T21:33:26.332Z,8.80
2023-04-12T21:35:54.398Z,8.80
2023-04-12T21:38:22.448Z,8.80
2023-04-12T21:40:49.463Z,8.80
2023-04-12T21:43:16.738Z,8.70
2023-04-12T21:45:43.735Z,8.70
2023-04-12T21:48:10.652Z,8.70
2023-04-12T21:50:38.048Z,8.70
2023-04-12T21:53:04.740Z,8.60
2023-04-12T21:55:31.500Z,8.60
2023-04-12T21:57:58.219Z,8.50
2023-04-12T22:00:27.179Z,8.40
2023-04-12T22:02:54.142Z,8.40
2023-04-12T22:05:21.199Z,8.30
2023-04-12T22:07:47.933Z,8.30
2023-04-12T22:10:14.840Z,8.30
2023-04-12T22:12:42.282Z,8.20
2023-04-12T22:15:11.633Z,8.20
2023-04-12T22:17:38.784Z,8.20
2023-04-12T22:20:08.300Z,8.20
2023-04-12T22:22:37.427Z,8.10
2023-04-12T22:25:06.967Z,8.10
2023-04-12T22:27:33.758Z,8.10
2023-04-12T22:30:00.669Z,8.10
2023-04-12T22:32:27.624Z,8.00
2023-04-12T22:35:07.119Z,8.00
2023-04-12T22:37:36.019Z,8.00
2023-04-12T22:40:04.996Z,8.00
2023-04-12T22:42:31.681Z,8.00
2023-04-12T22:44:58.383Z,8.00
2023-04-12T22:47:26.449Z,8.00
2023-04-12T22:50:00.955Z,8.00
2023-04-12T22:52:31.425Z,8.00
2023-04-12T22:54:58.203Z,8.00
2023-04-12T22:57:25.552Z,8.00
2023-04-12T22:59:53.598Z,8.00
2023-04-12T23:02:20.641Z,8.00
2023-04-12T23:04:49.086Z,8.00
2023-04-12T23:07:16.520Z,7.90
2023-04-12T23:09:45.184Z,7.90
2023-04-12T23:12:12.520Z,7.90
2023-04-12T23:14:39.957Z,7.90
2023-04-12T23:17:07.376Z,7.90
2023-04-12T23:19:34.505Z,7.90
2023-04-12T23:22:01.327Z,7.90
2023-04-12T23:24:28.537Z,7.90
2023-04-12T23:26:57.797Z,7.90
2023-04-12T23:29:25.701Z,7.90
2023-04-12T23:31:52.927Z,7.90
2023-04-12T23:34:22.034Z,7.90
2023-04-12T23:36:50.149Z,7.90
2023-04-12T23:39:18.164Z,7.90
2023-04-12T23:41:46.618Z,7.90
2023-04-12T23:44:13.748Z,7.90
2023-04-12T23:46:40.666Z,7.90
2023-04-12T23:49:08.461Z,7.90
2023-04-12T23:51:35.310Z,7.90
2023-04-12T23:54:02.024Z,7.80
2023-04-12T23:56:28.768Z,7.80
2023-04-12T23:58:55.786Z,7.80
